Latest Weather Observations for Bickley

IDW60901

Issued at 5:51 pm WST Thursday 17 August 2017 (issued every 10 minutes, with the page automatically refreshed every 10 minutes)

About weather observations | Map of Perth area stations | Latest observations for Perth area | Other Formats
Station Details ID: 009240 Name: BICKLEY Lat: -32.01 Lon: 116.14 Height: 384.0 m
Data from the previous 72 hours. | See also: Recent months at Bickley
Date/Time
WST
Temp
°C
App
Temp
°C
Dew
Point
°C
Rel
Hum
%
Delta-T
°C
Wind Press
QNH
hPa
Press
MSL
hPa
Rain since
9am
mm
Dir  Spd
km/h
Gust
km/h
Spd
kts
Gust
kts
17/05:30pm 12.6 9.3 4.3 57 3.9 NNW 11 24 6 13 - - 0.0
17/05:00pm 13.3 9.1 3.7 52 4.4 NW 15 28 8 15 - - 0.0
17/04:30pm 13.0 8.8 3.9 54 4.2 NW 15 33 8 18 - - 0.0
17/04:00pm 13.4 8.7 2.9 49 4.8 NW 17 30 9 16 - - 0.0
17/03:30pm 14.1 9.4 3.3 48 5.0 NNW 17 33 9 18 - - 0.0
17/03:00pm 13.9 9.9 4.8 54 4.3 NNW 15 33 8 18 - - 0.0
17/02:30pm 14.3 9.6 5.1 54 4.4 NW 19 33 10 18 - - 0.0
17/02:00pm 12.9 9.4 5.6 61 3.5 NW 13 22 7 12 - - 0.0
17/01:30pm 12.7 8.4 5.4 61 3.5 NW 17 30 9 16 - - 0.0
17/01:00pm 12.0 9.0 6.1 67 2.8 NW 11 22 6 12 - - 0.0
17/12:30pm 11.5 8.1 6.0 69 2.6 NW 13 20 7 11 - - 0.0
17/12:00pm 11.9 8.0 5.3 64 3.1 NW 15 26 8 14 - - 0.0
17/11:30am 12.5 8.8 6.1 65 3.1 NNW 15 24 8 13 - - 0.0
17/11:00am 11.8 8.4 5.9 67 2.8 NNW 13 24 7 13 - - 0.0
17/10:30am 10.8 7.8 5.8 71 2.4 NNW 11 20 6 11 - - 0.0
17/10:00am 10.9 8.5 7.0 77 1.9 NW 9 15 5 8 - - 0.0
17/09:30am 11.1 8.6 8.0 81 1.5 NNW 11 22 6 12 - - 0.0
17/09:00am 9.7 6.7 7.5 86 1.1 NNW 13 22 7 12 - - 0.6
17/08:30am 8.9 5.7 7.0 88 0.9 NNW 13 20 7 11 - - 0.6
17/08:00am 7.6 4.6 5.9 89 0.8 N 11 26 6 14 - - 0.6
17/07:30am 7.2 3.7 5.5 89 0.8 N 13 22 7 12 - - 0.6
17/07:00am 7.0 3.5 5.3 89 0.8 NNW 13 20 7 11 - - 0.6
17/06:30am 7.0 3.8 5.3 89 0.8 N 11 15 6 8 - - 0.4
17/06:00am 6.4 3.1 4.7 89 0.8 N 11 15 6 8 - - 0.4
17/05:30am 7.1 3.5 5.1 87 0.9 NNW 13 22 7 12 - - 0.4
17/05:00am 6.7 3.8 4.7 87 0.9 NNW 9 13 5 7 - - 0.4
17/04:30am 6.8 3.9 4.6 86 1.0 N 9 13 5 7 - - 0.2
17/04:00am 7.0 3.8 5.0 87 0.9 N 11 15 6 8 - - 0.2
17/03:30am 6.2 3.3 4.5 89 0.8 NNE 9 11 5 6 - - 0.2
17/03:00am 5.9 2.9 4.2 89 0.7 N 9 9 5 5 - - 0.2
17/02:30am 5.2 3.0 3.5 89 0.7 SE 4 6 2 3 - - 0.2
17/02:00am 5.1 2.5 3.3 88 0.8 S 6 7 3 4 - - 0.2
17/01:30am 5.3 2.5 3.3 87 0.8 SSW 7 9 4 5 - - 0.2
17/01:00am 5.5 2.7 3.3 86 0.9 SW 7 11 4 6 - - 0.2
17/12:30am 6.0 2.9 3.7 85 1.0 SSW 9 15 5 8 - - 0.2
17/12:00am 5.8 2.6 3.3 84 1.1 SSW 9 11 5 6 - - 0.2
 
Date/Time
WST
Temp
°C
App
Temp
°C
Dew
Point
°C
Rel
Hum
%
Delta-T
°C
Wind Press
QNH
hPa
Press
MSL
hPa
Rain since
9am
mm
Dir  Spd
km/h
Gust
km/h
Spd
kts
Gust
kts
16/11:30pm 6.3 2.8 3.6 83 1.2 SSW 11 15 6 8 - - 0.2
16/11:00pm 6.2 2.7 3.4 82 1.2 SW 11 15 6 8 - - 0.2
16/10:30pm 6.1 2.5 2.9 80 1.4 SW 11 15 6 8 - - 0.2
16/10:00pm 7.0 3.4 3.1 76 1.7 SW 11 20 6 11 - - 0.2
16/09:30pm 6.8 3.1 2.5 74 1.8 SSW 11 17 6 9 - - 0.2
16/09:00pm 7.3 3.3 2.8 73 1.9 WSW 13 17 7 9 - - 0.2
16/08:30pm 7.2 3.2 2.9 74 1.8 SW 13 20 7 11 - - 0.2
16/08:00pm 7.2 3.2 2.9 74 1.8 SW 13 17 7 9 - - 0.2
16/07:30pm 7.7 4.1 3.2 73 2.0 SW 11 17 6 9 - - 0.2
16/07:00pm 8.2 4.7 3.3 71 2.1 WSW 11 15 6 8 - - 0.2
16/06:30pm 8.8 4.5 3.4 69 2.4 WSW 15 24 8 13 - - 0.2
16/06:00pm 9.3 4.7 3.5 67 2.6 WSW 17 32 9 17 - - 0.2
16/05:30pm 9.6 5.0 3.6 66 2.7 SW 17 28 9 15 - - 0.2
16/05:00pm 10.2 6.0 3.7 64 2.9 WSW 15 26 8 14 - - 0.2
16/04:30pm 10.8 4.6 1.9 54 3.9 WSW 24 41 13 22 - - 0.2
16/04:00pm 10.9 4.8 3.0 58 3.5 WSW 24 41 13 22 - - 0.2
16/03:30pm 11.4 5.7 2.9 56 3.8 SW 22 43 12 23 - - 0.2
16/03:00pm 11.3 6.5 5.4 67 2.8 WSW 20 41 11 22 - - 0.2
16/02:33pm 11.5 5.0 4.9 64 3.1 SW 28 54 15 29 - - 0.0
16/02:30pm 12.1 5.9 4.1 58 3.7 WSW 26 54 14 29 - - 0.0
16/02:00pm 12.3 5.3 4.0 57 3.8 WSW 30 52 16 28 - - 0.0
16/01:30pm 12.6 5.9 3.8 55 4.0 WSW 28 48 15 26 - - 0.0
16/01:01pm 12.6 5.9 3.6 54 4.1 WSW 28 52 15 28 - - 0.0
16/01:00pm 12.4 6.0 3.1 53 4.2 WSW 26 50 14 27 - - 0.0
16/12:30pm 12.1 5.6 4.8 61 3.4 WSW 28 46 15 25 - - 0.0
16/12:00pm 11.6 5.2 5.0 64 3.1 WSW 28 48 15 26 - - 0.0
16/11:36am 11.4 5.1 5.5 67 2.8 WSW 28 54 15 29 - - 0.0
16/11:30am 12.1 6.4 6.6 69 2.7 WSW 26 46 14 25 - - 0.0
16/11:06am 11.9 5.1 3.2 55 3.9 WSW 28 57 15 31 - - 0.0
16/11:00am 12.4 6.4 3.6 55 4.0 WSW 24 39 13 21 - - 0.0
16/10:32am 12.0 5.5 4.5 60 3.5 W 28 50 15 27 - - 0.0
16/10:30am 12.1 5.2 4.8 61 3.4 W 30 46 16 25 - - 0.0
16/10:15am 11.6 5.1 4.8 63 3.2 W 28 52 15 28 - - 0.0
16/10:00am 11.5 6.5 6.6 72 2.4 WSW 22 43 12 23 - - 0.0
16/09:30am 11.3 6.0 6.8 74 2.2 WSW 24 44 13 24 - - 0.0
16/09:00am 10.3 5.3 6.5 77 1.8 WSW 22 43 12 23 - - 4.8
16/08:30am 9.8 5.4 7.4 85 1.2 WSW 20 32 11 17 - - 4.8
16/08:00am 8.8 4.4 7.4 91 0.7 WSW 20 35 11 19 - - 4.8
16/07:30am 8.3 3.9 7.2 93 0.5 WSW 20 35 11 19 - - 4.8
16/07:00am 8.3 3.5 7.5 95 0.4 WSW 22 33 12 18 - - 4.8
16/06:30am 8.8 4.2 8.2 96 0.3 WSW 22 33 12 18 - - 4.8
16/06:00am 9.2 5.1 8.6 96 0.3 WSW 20 41 11 22 - - 4.8
16/05:30am 9.3 5.4 8.5 95 0.4 W 19 32 10 17 - - 4.2
16/05:00am 9.5 4.3 8.7 95 0.4 WSW 26 41 14 22 - - 3.8
16/04:30am 9.4 4.1 8.5 94 0.4 W 26 41 14 22 - - 2.8
16/04:15am 9.5 3.9 8.6 94 0.4 W 28 57 15 31 - - 2.6
16/04:00am 9.6 4.8 8.7 94 0.4 W 24 44 13 24 - - 2.6
16/03:30am 9.5 4.6 8.6 94 0.4 WNW 24 41 13 22 - - 2.6
16/03:00am 9.3 5.7 8.2 93 0.5 WNW 17 28 9 15 - - 2.6
16/02:30am 9.3 5.1 8.2 93 0.5 WNW 20 30 11 16 - - 2.6
16/02:00am 8.9 4.6 8.0 94 0.4 W 20 33 11 18 - - 2.6
16/01:30am 9.0 4.8 8.2 95 0.4 W 20 35 11 19 - - 2.6
16/01:00am 9.0 4.8 8.2 95 0.4 W 20 33 11 18 - - 2.4
16/12:30am 9.3 5.2 8.5 95 0.4 W 20 32 11 17 - - 2.2
16/12:00am 9.3 5.2 8.5 95 0.4 W 20 32 11 17 - - 2.0
 
Date/Time
WST
Temp
°C
App
Temp
°C
Dew
Point
°C
Rel
Hum
%
Delta-T
°C
Wind Press
QNH
hPa
Press
MSL
hPa
Rain since
9am
mm
Dir  Spd
km/h
Gust
km/h
Spd
kts
Gust
kts
15/11:30pm 9.3 5.2 8.5 95 0.4 WNW 20 32 11 17 - - 2.0
15/11:00pm 8.9 4.9 8.1 95 0.4 W 19 33 10 18 - - 2.0
15/10:30pm 9.2 5.0 8.3 94 0.4 WSW 20 33 11 18 - - 2.0
15/10:00pm 9.2 5.2 8.3 94 0.4 W 19 33 10 18 - - 1.8
15/09:30pm 8.9 5.6 8.0 94 0.4 W 15 28 8 15 - - 1.8
15/09:00pm 9.1 4.9 8.2 94 0.4 W 20 33 11 18 - - 1.8
15/08:30pm 9.7 4.4 8.6 93 0.5 W 26 43 14 23 - - 1.8
15/08:00pm 9.7 5.5 8.3 91 0.7 W 20 33 11 18 - - 1.6
15/07:30pm 9.5 5.8 7.9 90 0.8 W 17 28 9 15 - - 1.2
15/07:00pm 9.7 5.9 7.5 86 1.1 WNW 17 28 9 15 - - 1.2
15/06:30pm 9.9 5.9 6.8 81 1.5 WSW 17 28 9 15 - - 1.0
15/06:00pm 10.4 5.9 6.0 74 2.1 W 19 30 10 16 - - 1.0
15/05:30pm 10.9 6.6 7.0 77 1.9 W 19 32 10 17 - - 1.0
15/05:00pm 10.9 6.0 6.8 76 2.0 W 22 39 12 21 - - 1.0
15/04:30pm 11.5 6.5 6.4 71 2.5 W 22 39 12 21 - - 1.0
15/04:00pm 11.8 7.0 7.5 75 2.1 W 22 39 12 21 - - 1.0
15/03:30pm 11.9 7.3 6.6 70 2.6 WSW 20 41 11 22 - - 0.8
15/03:00pm 12.7 7.3 6.3 65 3.1 W 24 44 13 24 - - 0.8
15/02:30pm 12.3 8.1 7.6 73 2.3 WSW 19 33 10 18 - - 0.8
15/02:08pm 12.4 6.1 5.8 64 3.2 W 28 46 15 25 - - 0.8
15/02:00pm 12.8 7.7 5.9 63 3.3 W 22 44 12 24 - - 0.8
15/01:30pm 12.7 5.8 6.5 66 3.0 W 32 52 17 28 - - 0.8
15/01:23pm 12.9 6.9 7.1 68 2.9 W 28 48 15 26 - - 0.8
15/01:00pm 11.9 7.5 7.4 74 2.2 WSW 20 35 11 19 - - 0.8
15/12:30pm 12.0 5.0 6.9 71 2.5 W 33 63 18 34 - - 0.8
15/12:00pm 12.9 7.1 7.8 71 2.6 W 28 54 15 29 - - 0.8
15/11:50am 12.1 6.3 8.0 76 2.1 W 28 50 15 27 - - 0.8
15/11:30am 11.5 6.6 8.5 82 1.5 W 24 39 13 21 - - 0.8
15/11:00am 12.1 6.4 8.2 77 2.0 W 28 50 15 27 - - 0.4
15/10:38am 11.8 6.0 8.1 78 1.9 W 28 52 15 28 - - 0.4
15/10:30am 11.8 7.0 9.0 83 1.4 W 24 43 13 23 - - 0.4
15/10:00am 10.1 5.9 8.4 89 0.8 WSW 20 35 11 19 - - 0.4
15/09:30am 9.1 3.9 7.1 87 1.0 WSW 24 43 13 23 - - 0.4
15/09:27am 9.2 3.2 7.0 86 1.1 WSW 28 61 15 33 - - 0.4
15/09:00am 9.3 5.5 7.4 88 0.9 W 17 28 9 15 - - 31.8
15/08:30am 8.8 4.3 7.1 89 0.8 W 20 33 11 18 - - 31.8
15/08:00am 8.6 3.7 6.9 89 0.8 W 22 35 12 19 - - 31.4
15/07:30am 8.3 2.9 6.3 87 0.9 W 24 50 13 27 - - 30.8
15/07:00am 8.4 2.9 5.7 83 1.2 W 24 44 13 24 - - 30.2
15/06:30am 8.5 3.0 6.0 84 1.2 W 24 35 13 19 - - 30.2
15/06:15am 8.7 2.5 6.3 85 1.1 W 28 48 15 26 - - 30.2
15/06:00am 8.3 2.4 5.9 85 1.1 W 26 46 14 25 - - 30.2
15/05:53am 8.5 2.3 6.1 85 1.1 W 28 46 15 25 - - 30.2
15/05:30am 8.5 3.5 6.5 87 0.9 W 22 33 12 18 - - 29.6
15/05:00am 7.9 2.5 6.2 89 0.8 W 24 39 13 21 - - 29.6
15/04:30am 7.6 1.3 5.7 88 0.9 W 28 52 15 28 - - 29.6
15/04:18am 8.3 2.2 6.4 88 0.9 W 28 52 15 28 - - 29.2
15/04:00am 8.9 4.0 7.0 88 0.9 W 22 33 12 18 - - 27.2
15/03:46am 8.8 2.8 6.9 88 0.9 W 28 46 15 25 - - 27.2
15/03:30am 8.7 3.0 6.8 88 0.9 W 26 43 14 23 - - 27.2
15/03:10am 8.4 2.3 6.5 88 0.9 W 28 48 15 26 - - 27.2
15/03:00am 8.4 3.5 6.7 89 0.8 W 22 39 12 21 - - 27.2
15/02:42am 8.7 2.7 7.2 90 0.7 W 28 76 15 41 - - 27.2
15/02:30am 8.5 2.9 7.0 90 0.7 WNW 26 41 14 22 - - 26.4
15/02:00am 8.9 2.2 7.2 89 0.8 W 32 54 17 29 - - 26.0
15/01:47am 9.7 3.5 7.8 88 0.9 WNW 30 59 16 32 - - 25.2
15/01:30am 9.6 4.6 7.9 89 0.8 WNW 24 35 13 19 - - 23.8
15/01:00am 9.7 5.2 8.5 92 0.6 WNW 22 46 12 25 - - 23.8
15/12:30am 9.5 5.0 8.4 93 0.5 W 22 35 12 19 - - 23.8
15/12:00am 8.9 4.6 7.8 93 0.5 WNW 20 35 11 19 - - 23.8
 
Date/Time
WST
Temp
°C
App
Temp
°C
Dew
Point
°C
Rel
Hum
%
Delta-T
°C
Wind Press
QNH
hPa
Press
MSL
hPa
Rain since
9am
mm
Dir  Spd
km/h
Gust
km/h
Spd
kts
Gust
kts
14/11:30pm 8.6 3.8 7.5 93 0.5 WNW 22 33 12 18 - - 23.6
14/11:00pm 8.5 2.6 7.4 93 0.5 W 28 44 15 24 - - 23.6
14/10:32pm 8.8 2.9 7.7 93 0.5 WNW 28 59 15 32 - - 23.4
14/10:30pm 9.0 4.0 7.9 93 0.5 WNW 24 50 13 27 - - 23.4
14/10:17pm 9.0 3.2 7.9 93 0.5 WNW 28 52 15 28 - - 21.2
14/10:00pm 9.3 5.3 8.2 93 0.5 WNW 19 39 10 21 - - 17.4
14/09:30pm 9.1 4.8 7.9 92 0.6 WNW 20 32 11 17 - - 16.6
14/09:18pm 9.2 3.4 7.8 91 0.7 WNW 28 52 15 28 - - 16.6
14/09:00pm 9.5 5.5 8.1 91 0.7 WNW 19 28 10 15 - - 16.0
14/08:30pm 9.5 3.7 7.8 89 0.8 WNW 28 54 15 29 - - 15.2
14/08:23pm 9.5 3.7 7.8 89 0.8 W 28 52 15 28 - - 14.6
14/08:00pm 9.7 4.3 8.0 89 0.8 WNW 26 46 14 25 - - 13.6
14/07:30pm 9.7 6.0 8.1 90 0.8 WNW 17 26 9 14 - - 13.4
14/07:00pm 9.8 5.6 8.1 89 0.8 WNW 20 33 11 18 - - 13.4
14/06:30pm 9.7 5.3 7.3 85 1.2 WNW 20 32 11 17 - - 13.4
14/06:10pm 10.2 4.1 6.5 78 1.8 WNW 28 54 15 29 - - 13.4
14/06:00pm 11.2 6.8 6.7 74 2.2 WNW 19 30 10 16 - - 12.0

Latest Capital City Observations: Canberra | Sydney | Melbourne | Brisbane | Adelaide | Perth | Hobart | Darwin

Other Formats:

Comma delimited format used in spreadsheet applications
http://www.bom.gov.au/fwo/IDW60901/IDW60901.95610.axf

JavaScript Object Notation format (JSON) in row-major order
http://www.bom.gov.au/fwo/IDW60901/IDW60901.95610.json